Time;durP1;ratioP1;P1;durP2;ratioP2;P2;SDS_P1;SDS_P2;PMS_P1;PMS_P2;Temp;Humidity;BMP_temperature;BMP_pressure;BME280_temperature;BME280_humidity;BME280_pressure;Samples;Min_cycle;Max_cycle;Signal;HPM_P1;HPM_P2
2022/01/29 00:01:50;;;;;;;34.80;16.60;;;2.20;99.90;;;;;;5080298;28;20260;-70
2022/01/29 00:04:17;;;;;;;27.75;14.55;;;2.10;99.90;;;;;;5080197;28;20719;-70
2022/01/29 00:06:44;;;;;;;33.03;17.77;;;2.10;99.90;;;;;;5079742;28;20224;-70
2022/01/29 00:09:14;;;;;;;27.38;17.17;;;2.00;99.90;;;;;;5079621;28;20614;-70
2022/01/29 00:11:44;;;;;;;24.65;16.52;;;2.00;99.90;;;;;;5079770;28;20215;-69
2022/01/29 00:14:11;;;;;;;36.72;17.85;;;2.00;99.90;;;;;;5079671;28;20212;-68
2022/01/29 00:16:40;;;;;;;34.33;17.63;;;2.00;99.90;;;;;;5078831;28;20219;-68
2022/01/29 00:19:07;;;;;;;31.40;17.23;;;1.90;99.90;;;;;;5078987;28;20200;-69
2022/01/29 00:21:33;;;;;;;27.77;17.10;;;1.90;99.90;;;;;;5078726;28;20199;-68
2022/01/29 00:24:00;;;;;;;34.17;16.05;;;2.00;99.90;;;;;;5079396;28;20279;-69
2022/01/29 00:26:28;;;;;;;30.13;17.13;;;2.00;99.90;;;;;;5079572;28;20203;-68
2022/01/29 00:28:56;;;;;;;26.00;14.48;;;2.00;99.90;;;;;;5078810;28;20211;-69
2022/01/29 00:31:23;;;;;;;22.85;14.43;;;2.10;99.90;;;;;;5078849;28;20204;-69
2022/01/29 00:33:49;;;;;;;20.10;12.45;;;2.20;99.90;;;;;;5078415;28;20252;-69
2022/01/29 00:36:16;;;;;;;21.63;13.10;;;2.30;99.90;;;;;;5078311;28;20227;-69
2022/01/29 00:38:42;;;;;;;27.33;14.00;;;2.40;99.90;;;;;;5078688;28;20196;-69
2022/01/29 00:41:09;;;;;;;20.40;12.15;;;2.50;99.90;;;;;;5079302;28;20333;-69
2022/01/29 00:43:35;;;;;;;22.80;13.07;;;2.50;99.90;;;;;;5078383;28;20229;-69
2022/01/29 00:46:01;;;;;;;21.25;11.88;;;2.60;99.90;;;;;;5078188;28;20216;-69
2022/01/29 00:48:28;;;;;;;21.00;12.48;;;2.60;99.90;;;;;;5078297;28;20200;-70
2022/01/29 00:50:57;;;;;;;20.67;11.70;;;2.60;99.90;;;;;;5078235;28;20195;-68
2022/01/29 00:53:23;;;;;;;22.15;12.40;;;2.60;99.90;;;;;;5077878;28;20260;-69
2022/01/29 00:55:49;;;;;;;21.95;13.55;;;2.60;99.90;;;;;;5077399;28;20224;-68
2022/01/29 00:58:16;;;;;;;17.75;11.82;;;2.60;99.90;;;;;;5077269;28;20204;-69
2022/01/29 01:00:44;;;;;;;28.10;14.75;;;2.60;99.90;;;;;;5078125;28;20203;-69
2022/01/29 01:03:10;;;;;;;19.10;12.00;;;2.60;99.90;;;;;;5078336;28;20196;-69
2022/01/29 01:05:36;;;;;;;19.75;11.50;;;2.60;99.90;;;;;;5077324;28;20196;-69
2022/01/29 01:08:03;;;;;;;20.08;12.70;;;2.70;99.90;;;;;;5078278;28;20207;-69
2022/01/29 01:10:30;;;;;;;17.80;11.75;;;2.70;99.90;;;;;;5079371;28;20196;-69
2022/01/29 01:12:56;;;;;;;17.98;11.63;;;2.70;99.90;;;;;;5079591;28;20196;-69
2022/01/29 01:15:23;;;;;;;17.17;10.27;;;2.80;99.90;;;;;;5078694;28;20208;-68
2022/01/29 01:17:49;;;;;;;17.52;11.00;;;2.80;99.90;;;;;;5079589;28;20196;-70
2022/01/29 01:20:15;;;;;;;14.38;9.90;;;2.90;99.90;;;;;;5081031;28;20337;-68
2022/01/29 01:22:42;;;;;;;18.55;10.27;;;3.00;99.90;;;;;;5079730;28;20200;-69
2022/01/29 01:25:09;;;;;;;14.75;9.45;;;3.10;99.90;;;;;;5078827;28;20643;-68
2022/01/29 01:27:35;;;;;;;15.57;10.07;;;3.20;99.90;;;;;;5075183;28;20200;-67
2022/01/29 01:30:02;;;;;;;15.70;10.32;;;3.10;99.90;;;;;;5075110;28;20233;-68
2022/01/29 01:32:29;;;;;;;17.17;10.20;;;3.00;99.90;;;;;;5074884;28;20673;-68
2022/01/29 01:35:05;;;;;;;20.05;9.95;;;2.90;99.90;;;;;;5074815;28;20709;-67
2022/01/29 01:37:39;;;;;;;15.13;9.90;;;2.80;99.90;;;;;;5075012;28;20211;-68
2022/01/29 01:40:07;;;;;;;17.02;10.80;;;2.80;99.90;;;;;;5074394;28;20637;-68
2022/01/29 01:42:34;;;;;;;16.70;9.30;;;2.70;99.90;;;;;;5075078;28;20200;-67
2022/01/29 01:45:01;;;;;;;17.75;11.48;;;2.70;99.90;;;;;;5074765;28;20202;-67
2022/01/29 01:47:27;;;;;;;16.92;11.63;;;2.70;99.90;;;;;;5073519;28;20608;-68
2022/01/29 01:49:53;;;;;;;17.95;10.98;;;2.70;99.90;;;;;;5074832;28;20204;-67
2022/01/29 01:52:20;;;;;;;18.23;10.85;;;2.60;99.90;;;;;;5074806;28;20242;-68
2022/01/29 01:54:47;;;;;;;18.88;10.07;;;2.60;99.90;;;;;;5074630;28;20212;-67
2022/01/29 01:57:13;;;;;;;14.93;10.32;;;2.70;99.90;;;;;;5074554;28;20224;-69
2022/01/29 01:59:40;;;;;;;18.50;11.48;;;2.70;99.90;;;;;;5074871;28;20212;-69
2022/01/29 02:02:06;;;;;;;18.55;11.98;;;2.70;99.90;;;;;;5074535;28;20208;-68
2022/01/29 02:04:33;;;;;;;19.23;10.95;;;2.70;99.90;;;;;;5074346;28;20199;-68
2022/01/29 02:07:01;;;;;;;15.93;10.00;;;2.70;99.90;;;;;;5074878;28;20296;-69
2022/01/29 02:09:29;;;;;;;20.65;10.27;;;2.70;99.90;;;;;;5074766;28;20261;-69
2022/01/29 02:11:58;;;;;;;18.95;11.23;;;2.70;99.90;;;;;;5074740;28;20249;-69
2022/01/29 02:14:29;;;;;;;18.63;11.30;;;2.70;99.90;;;;;;5074576;28;20234;-69
2022/01/29 02:16:55;;;;;;;19.45;12.32;;;2.60;99.90;;;;;;5074250;28;20216;-69
2022/01/29 02:19:22;;;;;;;17.15;11.60;;;2.60;99.90;;;;;;5073982;28;20207;-68
2022/01/29 02:21:48;;;;;;;21.38;13.57;;;2.50;99.90;;;;;;5073731;28;20273;-69
2022/01/29 02:24:14;;;;;;;20.40;11.13;;;2.50;99.90;;;;;;5073183;28;20212;-69
2022/01/29 02:26:41;;;;;;;21.23;12.25;;;2.50;99.90;;;;;;5073918;28;20251;-69
2022/01/29 02:29:07;;;;;;;16.13;10.32;;;2.60;99.90;;;;;;5074260;28;20203;-69
2022/01/29 02:31:34;;;;;;;18.00;12.05;;;2.60;99.90;;;;;;5074306;28;20211;-69
2022/01/29 02:34:00;;;;;;;17.42;10.77;;;2.60;99.90;;;;;;5074125;28;20199;-69
2022/01/29 02:36:27;;;;;;;18.38;12.68;;;2.60;99.90;;;;;;5074168;28;20219;-69
2022/01/29 02:38:53;;;;;;;19.15;11.98;;;2.60;99.90;;;;;;5073822;28;20200;-69
2022/01/29 02:41:22;;;;;;;17.63;11.48;;;2.60;99.90;;;;;;5074224;28;20247;-68
2022/01/29 02:43:50;;;;;;;16.42;10.18;;;2.60;99.90;;;;;;5074130;28;20204;-69
2022/01/29 02:48:46;;;;;;;16.42;10.18;;;2.70;99.90;;;;;;5073834;28;20345;-69
2022/01/29 02:51:13;;;;;;;16.23;10.90;;;2.70;99.90;;;;;;5073817;28;20207;-68
2022/01/29 02:53:40;;;;;;;25.48;12.63;;;2.70;99.90;;;;;;5073598;28;20227;-69
2022/01/29 02:56:08;;;;;;;16.73;10.68;;;2.70;99.90;;;;;;5072089;28;20219;-69
2022/01/29 02:58:34;;;;;;;20.25;11.57;;;2.70;99.90;;;;;;5074009;28;20249;-69
2022/01/29 03:01:02;;;;;;;19.85;11.50;;;2.70;99.90;;;;;;5072425;28;20203;-69
2022/01/29 03:03:28;;;;;;;19.73;10.98;;;2.70;99.90;;;;;;5073450;28;20248;-69
2022/01/29 03:05:54;;;;;;;14.95;10.30;;;2.80;99.90;;;;;;5073631;28;20699;-69
2022/01/29 03:08:21;;;;;;;17.00;11.13;;;2.70;99.90;;;;;;5073187;28;20627;-68
2022/01/29 03:10:47;;;;;;;17.48;11.45;;;2.70;99.90;;;;;;5074171;28;20203;-68
2022/01/29 03:13:15;;;;;;;17.38;11.15;;;2.70;99.90;;;;;;5073987;28;20204;-68
2022/01/29 03:15:42;;;;;;;20.50;12.68;;;2.80;99.90;;;;;;5073679;28;20208;-68
2022/01/29 03:18:08;;;;;;;22.33;12.30;;;2.70;99.90;;;;;;5073314;28;20687;-68
2022/01/29 03:20:35;;;;;;;17.83;11.80;;;2.70;99.90;;;;;;5073544;28;20199;-69
2022/01/29 03:23:01;;;;;;;19.20;12.52;;;2.70;99.90;;;;;;5073425;28;20732;-68
2022/01/29 03:25:28;;;;;;;21.33;13.32;;;2.80;99.90;;;;;;5073785;28;20192;-68
2022/01/29 03:27:54;;;;;;;21.00;12.85;;;2.80;99.90;;;;;;5074930;28;20210;-69
2022/01/29 03:30:20;;;;;;;22.05;12.98;;;2.80;99.90;;;;;;5073595;28;20257;-68
2022/01/29 03:32:47;;;;;;;20.13;12.05;;;2.80;99.90;;;;;;5073502;28;20253;-69
2022/01/29 03:35:15;;;;;;;24.75;12.93;;;2.80;99.90;;;;;;5076033;28;20207;-69
2022/01/29 03:37:42;;;;;;;25.42;14.88;;;2.90;99.90;;;;;;5077480;28;20219;-68
2022/01/29 03:40:08;;;;;;;26.17;13.98;;;2.90;99.90;;;;;;5077398;28;20207;-68
2022/01/29 03:42:44;;;;;;;19.55;12.68;;;2.90;99.90;;;;;;5077018;28;20724;-68
2022/01/29 03:45:13;;;;;;;21.15;12.77;;;2.90;99.90;;;;;;5076537;28;20257;-68
2022/01/29 03:47:40;;;;;;;21.05;12.70;;;2.90;99.90;;;;;;5077322;28;20272;-68
2022/01/29 03:50:06;;;;;;;24.30;14.02;;;2.90;99.90;;;;;;5076668;28;20624;-68
2022/01/29 03:52:33;;;;;;;24.55;14.63;;;2.90;99.90;;;;;;5076917;28;20236;-68
2022/01/29 03:54:59;;;;;;;26.25;14.25;;;2.90;99.90;;;;;;5076956;28;20203;-68
2022/01/29 03:57:26;;;;;;;24.05;13.70;;;2.90;99.90;;;;;;5075597;28;20266;-69
2022/01/29 03:59:52;;;;;;;24.30;14.23;;;2.90;99.90;;;;;;5076862;28;20664;-69
2022/01/29 04:02:18;;;;;;;23.75;14.52;;;2.90;99.90;;;;;;5076593;28;20724;-69
2022/01/29 04:04:45;;;;;;;26.55;13.75;;;2.80;99.90;;;;;;5076870;28;20542;-68
2022/01/29 04:07:12;;;;;;;21.85;14.10;;;2.80;99.90;;;;;;5076430;28;20651;-68
2022/01/29 04:09:48;;;;;;;28.75;14.88;;;2.90;99.90;;;;;;5076470;28;20651;-68
2022/01/29 04:12:14;;;;;;;27.30;15.23;;;2.80;99.90;;;;;;5076519;28;20260;-68
2022/01/29 04:14:41;;;;;;;22.40;12.77;;;2.80;99.90;;;;;;5076584;28;20196;-68
2022/01/29 04:17:10;;;;;;;26.83;13.75;;;2.80;99.90;;;;;;5075437;28;20224;-68
2022/01/29 04:19:37;;;;;;;22.60;12.82;;;2.80;99.90;;;;;;5076534;28;20196;-68
2022/01/29 04:22:04;;;;;;;26.30;14.63;;;2.80;99.90;;;;;;5076540;28;20509;-69
2022/01/29 04:24:32;;;;;;;28.23;13.45;;;2.80;99.90;;;;;;5076481;28;20192;-68
2022/01/29 04:27:00;;;;;;;58.47;30.15;;;2.80;99.90;;;;;;5075303;28;20215;-69
2022/01/29 04:29:36;;;;;;;31.92;19.17;;;2.80;99.90;;;;;;5076405;28;20550;-69
2022/01/29 04:32:11;;;;;;;22.85;13.25;;;2.70;99.90;;;;;;5076417;28;20264;-69
2022/01/29 04:34:37;;;;;;;23.42;13.35;;;2.70;99.90;;;;;;5076433;28;20249;-68
2022/01/29 04:37:04;;;;;;;27.73;13.40;;;2.70;99.90;;;;;;5076373;28;20224;-69
2022/01/29 04:39:30;;;;;;;22.75;14.15;;;2.70;99.90;;;;;;5076262;28;20216;-69
2022/01/29 04:41:56;;;;;;;26.27;13.05;;;2.70;99.90;;;;;;5076148;28;20204;-69
2022/01/29 04:44:23;;;;;;;22.25;12.20;;;2.70;99.90;;;;;;5076730;28;20210;-69
2022/01/29 04:46:49;;;;;;;26.33;12.90;;;2.70;99.90;;;;;;5075096;28;20535;-69
2022/01/29 04:49:15;;;;;;;24.15;12.55;;;2.70;99.90;;;;;;5075943;28;20647;-69
2022/01/29 04:51:42;;;;;;;24.75;12.15;;;2.70;99.90;;;;;;5076095;28;20208;-69
2022/01/29 04:54:08;;;;;;;23.88;11.77;;;2.70;99.90;;;;;;5075570;28;20236;-69
2022/01/29 04:56:35;;;;;;;22.98;13.43;;;2.70;99.90;;;;;;5075778;28;20230;-70
2022/01/29 04:59:02;;;;;;;20.00;11.00;;;2.60;99.90;;;;;;5075843;28;20227;-69
2022/01/29 05:01:29;;;;;;;23.33;11.82;;;2.60;99.90;;;;;;5075377;28;20668;-69
2022/01/29 05:03:55;;;;;;;16.25;8.88;;;2.70;99.90;;;;;;5075781;28;20200;-69
2022/01/29 05:06:21;;;;;;;17.02;10.30;;;2.70;99.90;;;;;;5075582;28;20224;-69
2022/01/29 05:08:48;;;;;;;17.20;9.75;;;2.70;99.90;;;;;;5075255;28;20204;-68
2022/01/29 05:11:15;;;;;;;19.23;9.82;;;2.70;99.90;;;;;;5075570;28;20556;-68
2022/01/29 05:13:42;;;;;;;14.73;8.13;;;2.60;99.90;;;;;;5075941;28;20269;-69
2022/01/29 05:27:08;;;;;;;11.57;6.13;;;2.60;99.90;;;;;;5086325;28;20184;-69
2022/01/29 05:29:36;;;;;;;12.65;7.90;;;2.60;99.90;;;;;;5085704;28;20287;-69
2022/01/29 05:32:06;;;;;;;13.68;7.43;;;2.60;99.90;;;;;;5085224;28;20204;-70
2022/01/29 05:34:33;;;;;;;11.65;6.97;;;2.60;99.90;;;;;;5085160;28;20556;-69
2022/01/29 05:37:02;;;;;;;8.70;6.70;;;2.60;99.90;;;;;;5084892;28;20215;-69
2022/01/29 05:39:29;;;;;;;10.55;5.75;;;2.60;99.90;;;;;;5084624;28;20199;-70
2022/01/29 05:41:55;;;;;;;12.05;7.10;;;2.60;99.90;;;;;;5085226;28;20282;-69
2022/01/29 05:44:22;;;;;;;9.32;6.65;;;2.60;99.90;;;;;;5085296;28;20204;-69
2022/01/29 05:46:49;;;;;;;10.05;6.25;;;2.60;99.90;;;;;;5084453;28;20711;-70
2022/01/29 05:49:15;;;;;;;11.35;7.07;;;2.60;99.90;;;;;;5084770;28;20342;-70
2022/01/29 05:51:42;;;;;;;10.60;6.32;;;2.60;99.90;;;;;;5084986;28;20204;-70
2022/01/29 05:54:08;;;;;;;9.82;6.35;;;2.60;99.90;;;;;;5085277;28;20262;-70
2022/01/29 05:56:34;;;;;;;8.10;5.70;;;2.60;99.90;;;;;;5084143;28;20199;-69
2022/01/29 05:59:01;;;;;;;9.00;6.07;;;2.60;99.90;;;;;;5083579;28;20200;-69
2022/01/29 06:01:27;;;;;;;9.55;7.03;;;2.60;99.90;;;;;;5085088;28;20259;-69
2022/01/29 06:03:54;;;;;;;10.35;7.30;;;2.60;99.90;;;;;;5085420;28;20362;-69
2022/01/29 06:06:20;;;;;;;11.40;7.22;;;2.60;99.90;;;;;;5083852;28;20719;-69
2022/01/29 06:08:46;;;;;;;13.05;8.50;;;2.60;99.90;;;;;;5084500;28;20341;-69
2022/01/29 06:11:13;;;;;;;12.27;8.30;;;2.60;99.90;;;;;;5084244;28;20282;-69
2022/01/29 06:13:39;;;;;;;12.70;8.48;;;2.60;99.90;;;;;;5084965;28;20226;-69
2022/01/29 06:16:06;;;;;;;15.57;8.27;;;2.60;99.90;;;;;;5084632;28;20199;-69
2022/01/29 06:18:33;;;;;;;14.10;8.77;;;2.60;99.90;;;;;;5084688;28;20215;-69
2022/01/29 06:21:04;;;;;;;17.00;8.52;;;2.60;99.90;;;;;;5084238;28;20200;-69
2022/01/29 06:23:33;;;;;;;18.55;10.52;;;2.60;99.90;;;;;;5084755;28;20719;-69
2022/01/29 06:26:03;;;;;;;17.20;9.15;;;2.60;99.90;;;;;;5083854;28;20254;-69
2022/01/29 06:28:30;;;;;;;18.50;9.95;;;2.60;99.90;;;;;;5083424;28;20203;-69
2022/01/29 06:30:59;;;;;;;20.25;10.63;;;2.50;99.90;;;;;;5084495;28;20542;-69
2022/01/29 06:33:25;;;;;;;17.40;10.43;;;2.60;99.90;;;;;;5084196;28;20199;-69
2022/01/29 06:35:52;;;;;;;20.02;9.57;;;2.60;99.90;;;;;;5083784;28;20207;-69
2022/01/29 06:38:18;;;;;;;14.82;10.23;;;2.60;99.90;;;;;;5083588;28;20284;-69
2022/01/29 06:40:45;;;;;;;20.02;11.13;;;2.60;99.90;;;;;;5084236;28;20199;-69
2022/01/29 06:43:12;;;;;;;15.85;10.70;;;2.60;99.90;;;;;;5083810;28;20205;-69
2022/01/29 06:45:41;;;;;;;22.75;11.38;;;2.70;99.90;;;;;;5084314;28;20259;-69
2022/01/29 06:48:08;;;;;;;17.05;11.25;;;2.70;99.90;;;;;;5084204;28;20204;-69
2022/01/29 06:50:35;;;;;;;19.52;10.85;;;2.70;99.90;;;;;;5083986;28;20259;-69
2022/01/29 06:53:01;;;;;;;16.05;10.43;;;2.70;99.90;;;;;;5083530;28;20319;-69
2022/01/29 06:55:28;;;;;;;19.45;10.85;;;2.80;99.90;;;;;;5083033;28;20342;-69
2022/01/29 06:57:54;;;;;;;21.85;10.52;;;2.80;99.90;;;;;;5084372;28;20219;-69
2022/01/29 07:00:20;;;;;;;16.13;11.10;;;2.80;99.90;;;;;;5084214;28;20260;-69
2022/01/29 07:02:47;;;;;;;17.13;10.50;;;2.80;99.90;;;;;;5083908;28;20200;-69
2022/01/29 07:05:14;;;;;;;14.07;10.38;;;2.80;99.90;;;;;;5084289;28;20207;-70
2022/01/29 07:07:40;;;;;;;13.75;9.10;;;2.80;99.90;;;;;;5084028;28;20227;-69
2022/01/29 07:10:09;;;;;;;18.90;10.93;;;2.70;99.90;;;;;;5082718;28;20207;-69
2022/01/29 07:12:39;;;;;;;15.30;9.18;;;2.70;99.90;;;;;;5083178;28;20295;-69
2022/01/29 07:15:07;;;;;;;15.30;9.60;;;2.70;99.90;;;;;;5083859;28;20211;-69
2022/01/29 07:17:34;;;;;;;17.95;11.20;;;2.60;99.90;;;;;;5082097;28;20406;-69
2022/01/29 07:20:00;;;;;;;16.15;9.20;;;2.60;99.90;;;;;;5079890;28;20676;-69
2022/01/29 07:22:27;;;;;;;13.15;8.95;;;2.60;99.90;;;;;;5082730;28;20338;-70
2022/01/29 07:24:53;;;;;;;16.73;10.70;;;2.50;99.90;;;;;;5081566;28;20255;-70
2022/01/29 07:27:20;;;;;;;17.08;11.10;;;2.50;99.90;;;;;;5082653;28;20207;-70
2022/01/29 07:29:47;;;;;;;18.38;11.65;;;2.40;99.90;;;;;;5083872;28;20263;-72
2022/01/29 07:32:14;;;;;;;16.48;10.63;;;2.40;99.90;;;;;;5075817;28;20196;-69
2022/01/29 07:34:40;;;;;;;14.00;10.05;;;2.40;99.90;;;;;;5071847;28;20208;-69
2022/01/29 07:37:07;;;;;;;20.05;11.15;;;2.40;99.90;;;;;;5072817;28;20219;-69
2022/01/29 07:39:33;;;;;;;18.55;11.52;;;2.40;99.90;;;;;;5072862;28;20200;-69
2022/01/29 07:42:00;;;;;;;16.50;11.65;;;2.40;99.90;;;;;;5073068;28;20203;-69
2022/01/29 07:44:26;;;;;;;20.25;11.90;;;2.40;99.90;;;;;;5054949;28;20203;-69
2022/01/29 07:46:53;;;;;;;20.73;11.95;;;2.30;99.90;;;;;;5073006;28;20192;-69
2022/01/29 07:49:19;;;;;;;21.45;12.32;;;2.30;99.90;;;;;;5072987;28;20260;-69
2022/01/29 07:51:46;;;;;;;19.88;13.25;;;2.30;99.90;;;;;;5072644;28;20681;-69
2022/01/29 07:54:12;;;;;;;20.10;12.25;;;2.20;99.90;;;;;;5072367;28;20737;-69
2022/01/29 07:56:39;;;;;;;14.80;12.27;;;2.20;99.90;;;;;;5072995;28;20200;-69
2022/01/29 07:59:05;;;;;;;18.00;12.05;;;2.20;99.90;;;;;;5072829;28;20285;-69
2022/01/29 08:01:32;;;;;;;21.02;12.27;;;2.30;99.90;;;;;;5072511;28;20208;-69
2022/01/29 08:03:58;;;;;;;16.92;11.35;;;2.30;99.90;;;;;;5071040;28;20204;-69
2022/01/29 08:06:29;;;;;;;20.15;12.75;;;2.20;99.90;;;;;;5072559;28;20220;-69
2022/01/29 08:08:57;;;;;;;29.42;15.90;;;2.30;99.90;;;;;;5073491;28;20204;-69
2022/01/29 08:11:24;;;;;;;26.05;14.40;;;2.20;99.90;;;;;;5073558;28;20208;-69
2022/01/29 08:13:51;;;;;;;23.10;14.48;;;2.20;99.90;;;;;;5072533;28;20204;-68
2022/01/29 08:16:17;;;;;;;18.70;13.50;;;2.20;99.90;;;;;;5072912;28;20212;-68
2022/01/29 08:18:45;;;;;;;29.48;15.48;;;2.30;99.90;;;;;;5072726;28;20227;-69
2022/01/29 08:21:13;;;;;;;21.17;14.63;;;2.30;99.90;;;;;;5073579;28;20645;-68
2022/01/29 08:23:41;;;;;;;27.52;16.48;;;2.30;99.90;;;;;;5076169;28;20660;-69
2022/01/29 08:26:07;;;;;;;29.52;15.27;;;2.30;99.90;;;;;;5076092;28;20206;-69
2022/01/29 08:28:34;;;;;;;23.67;16.48;;;2.40;99.90;;;;;;5076038;28;20200;-69
2022/01/29 08:31:00;;;;;;;23.58;15.13;;;2.30;99.90;;;;;;5076465;28;20651;-69
2022/01/29 08:33:27;;;;;;;29.08;15.80;;;2.30;99.90;;;;;;5076010;28;20724;-69
2022/01/29 08:35:53;;;;;;;27.65;17.10;;;2.40;99.90;;;;;;5076196;28;20204;-68
2022/01/29 08:38:21;;;;;;;24.77;14.75;;;2.40;99.90;;;;;;5075761;28;20219;-68
2022/01/29 08:40:47;;;;;;;24.58;15.10;;;2.40;99.90;;;;;;5076176;28;20200;-69
2022/01/29 08:43:14;;;;;;;25.02;16.52;;;2.50;99.90;;;;;;5075971;28;20765;-68
2022/01/29 08:45:40;;;;;;;26.38;15.52;;;2.40;99.90;;;;;;5076282;28;20200;-68
2022/01/29 08:48:07;;;;;;;27.67;18.20;;;2.40;99.90;;;;;;5076528;28;20204;-68
2022/01/29 08:50:33;;;;;;;23.85;17.20;;;2.40;99.90;;;;;;5076120;28;20211;-69
2022/01/29 08:53:00;;;;;;;24.58;17.05;;;2.40;99.90;;;;;;5076208;28;20292;-69
2022/01/29 08:55:26;;;;;;;29.88;17.80;;;2.40;99.90;;;;;;5076209;28;20204;-69
2022/01/29 08:57:53;;;;;;;29.88;17.13;;;2.40;99.90;;;;;;5076025;28;20222;-68
2022/01/29 09:00:19;;;;;;;26.27;16.88;;;2.50;99.90;;;;;;5076281;28;20256;-69
2022/01/29 09:02:46;;;;;;;26.20;17.70;;;2.50;99.90;;;;;;5076239;28;20630;-69
2022/01/29 09:05:13;;;;;;;27.15;17.38;;;2.50;99.90;;;;;;5076150;28;20207;-69
2022/01/29 09:07:39;;;;;;;24.60;17.70;;;2.50;99.90;;;;;;5075703;28;20220;-69
2022/01/29 09:10:06;;;;;;;30.02;18.52;;;2.40;99.90;;;;;;5074836;28;20246;-69
2022/01/29 09:12:33;;;;;;;29.08;18.52;;;2.50;99.90;;;;;;5075612;28;20612;-69
2022/01/29 09:14:59;;;;;;;28.60;19.50;;;2.40;99.90;;;;;;5075470;28;20196;-69
2022/01/29 09:17:25;;;;;;;29.77;18.33;;;2.40;99.90;;;;;;5082466;28;20397;-69
2022/01/29 09:19:52;;;;;;;33.97;19.70;;;2.30;99.90;;;;;;5084777;28;20267;-69
2022/01/29 09:22:18;;;;;;;27.85;19.52;;;2.30;99.90;;;;;;5084267;28;20331;-70
2022/01/29 09:24:45;;;;;;;30.95;19.83;;;2.30;99.90;;;;;;5083379;28;20283;-69
2022/01/29 09:27:11;;;;;;;39.58;19.58;;;2.30;99.90;;;;;;5082773;28;20257;-69
2022/01/29 09:29:38;;;;;;;35.60;20.48;;;2.20;99.90;;;;;;5080270;28;20283;-71
2022/01/29 09:32:06;;;;;;;30.95;21.23;;;2.20;99.90;;;;;;5079918;28;20310;-68
2022/01/29 09:34:33;;;;;;;31.10;19.20;;;2.20;99.90;;;;;;5075258;28;20225;-68
2022/01/29 09:36:59;;;;;;;35.67;22.63;;;2.20;99.90;;;;;;5073798;28;20200;-68
2022/01/29 09:39:25;;;;;;;37.03;20.27;;;2.20;99.90;;;;;;5074624;28;20216;-68
2022/01/29 09:41:55;;;;;;;38.20;20.92;;;2.10;99.90;;;;;;5074771;28;20663;-68
2022/01/29 09:44:22;;;;;;;34.45;20.63;;;2.10;99.90;;;;;;5074822;28;20210;-69
2022/01/29 09:46:51;;;;;;;35.97;19.52;;;2.20;99.90;;;;;;5074689;28;20204;-68
2022/01/29 09:49:18;;;;;;;32.17;19.75;;;2.10;99.90;;;;;;5074690;28;20664;-67
2022/01/29 09:51:45;;;;;;;37.25;20.85;;;2.10;99.90;;;;;;5074766;28;20204;-68
2022/01/29 09:54:11;;;;;;;35.88;22.35;;;2.10;99.90;;;;;;5074488;28;20828;-68
2022/01/29 09:56:38;;;;;;;32.85;20.05;;;2.10;99.90;;;;;;5074618;28;20244;-68
2022/01/29 09:59:04;;;;;;;37.25;20.10;;;2.10;99.90;;;;;;5074587;28;20227;-67
2022/01/29 10:01:31;;;;;;;37.33;21.58;;;2.10;99.90;;;;;;5074709;28;20626;-68
2022/01/29 10:04:05;;;;;;;37.20;22.83;;;2.10;99.90;;;;;;5075081;28;20203;-67
2022/01/29 10:06:33;;;;;;;35.67;21.20;;;2.10;99.90;;;;;;5075053;28;20636;-68
2022/01/29 10:09:01;;;;;;;31.40;20.45;;;2.10;99.90;;;;;;5074993;28;20216;-67
2022/01/29 10:11:28;;;;;;;37.47;22.92;;;2.10;99.90;;;;;;5073530;28;20203;-68
2022/01/29 10:14:00;;;;;;;37.28;21.83;;;2.10;99.90;;;;;;5074920;28;20218;-67
2022/01/29 10:16:29;;;;;;;34.10;20.25;;;2.20;99.90;;;;;;5074747;28;20200;-68
2022/01/29 10:19:02;;;;;;;34.00;19.52;;;2.20;99.90;;;;;;5074598;28;20224;-67
2022/01/29 10:21:45;;;;;;;36.95;20.77;;;2.20;99.90;;;;;;5074402;28;20196;-67
2022/01/29 10:24:18;;;;;;;36.63;20.63;;;2.20;99.90;;;;;;5074517;28;20192;-67
2022/01/29 10:26:46;;;;;;;35.75;18.23;;;2.30;99.90;;;;;;5074053;28;20270;-68
2022/01/29 10:29:20;;;;;;;30.15;20.75;;;2.30;99.90;;;;;;5074139;28;20584;-69
2022/01/29 10:31:48;;;;;;;32.88;18.40;;;2.30;99.90;;;;;;5073988;28;20200;-69
2022/01/29 10:34:16;;;;;;;28.50;18.42;;;2.30;99.90;;;;;;5074302;28;20508;-69
2022/01/29 10:36:42;;;;;;;34.13;19.63;;;2.40;99.90;;;;;;5073910;28;20208;-69
2022/01/29 10:39:09;;;;;;;32.05;18.75;;;2.40;99.90;;;;;;5073506;28;20219;-69
2022/01/29 10:41:35;;;;;;;30.20;17.88;;;2.40;99.90;;;;;;5073975;28;20199;-69
2022/01/29 10:44:11;;;;;;;27.02;18.27;;;2.50;99.90;;;;;;5071448;28;20196;-69
2022/01/29 10:46:40;;;;;;;34.35;20.75;;;2.50;99.90;;;;;;5072481;28;20241;-69
2022/01/29 10:49:07;;;;;;;24.25;15.35;;;2.50;99.90;;;;;;5074254;28;20536;-69
2022/01/29 10:51:34;;;;;;;25.65;16.45;;;2.50;99.90;;;;;;5073904;28;20204;-68
2022/01/29 10:54:19;;;;;;;27.67;18.45;;;2.50;99.90;;;;;;5073695;28;20281;-68
2022/01/29 10:57:10;;;;;;;25.67;15.55;;;2.50;99.90;;;;;;5073824;28;20195;-69
2022/01/29 10:59:48;;;;;;;23.48;16.70;;;2.60;99.90;;;;;;5068043;28;20702;-69
2022/01/29 11:02:16;;;;;;;27.90;17.38;;;2.60;99.90;;;;;;5073638;28;20247;-68
2022/01/29 11:04:44;;;;;;;24.38;16.70;;;2.60;99.90;;;;;;5073729;28;20203;-68
2022/01/29 11:07:24;;;;;;;23.15;15.00;;;2.70;99.90;;;;;;5073406;28;20607;-68
2022/01/29 11:09:51;;;;;;;23.30;15.52;;;2.70;99.90;;;;;;5073875;28;20199;-68
2022/01/29 11:12:20;;;;;;;23.45;15.07;;;2.80;99.90;;;;;;5073261;28;20229;-69
2022/01/29 11:14:49;;;;;;;22.60;13.23;;;2.70;99.90;;;;;;5073508;28;20192;-69
2022/01/29 11:17:18;;;;;;;23.50;14.68;;;2.80;99.90;;;;;;5073601;28;20249;-68
2022/01/29 11:19:45;;;;;;;20.90;15.25;;;2.80;99.90;;;;;;5073353;28;20225;-68
2022/01/29 11:22:13;;;;;;;23.17;15.40;;;2.80;99.90;;;;;;5073117;28;20667;-69
2022/01/29 11:24:42;;;;;;;19.80;14.00;;;2.90;99.90;;;;;;5073346;28;20203;-69
2022/01/29 11:27:23;;;;;;;25.33;14.30;;;2.90;99.90;;;;;;5074029;28;20254;-68
2022/01/29 11:30:02;;;;;;;20.88;13.80;;;2.90;99.90;;;;;;5073785;28;20632;-69
2022/01/29 11:32:32;;;;;;;16.45;12.32;;;2.90;99.90;;;;;;5073133;28;20663;-68
2022/01/29 11:35:18;;;;;;;19.83;13.80;;;3.00;99.90;;;;;;5073460;28;20244;-69
2022/01/29 11:38:04;;;;;;;18.55;12.75;;;3.00;99.90;;;;;;5073079;28;20719;-68
2022/01/29 11:40:44;;;;;;;17.13;11.18;;;3.10;99.90;;;;;;5072833;28;20210;-69
2022/01/29 11:43:19;;;;;;;18.25;12.15;;;3.10;99.90;;;;;;5072758;28;20188;-69
2022/01/29 11:46:10;;;;;;;16.83;11.57;;;3.10;99.90;;;;;;5072831;28;20199;-68
2022/01/29 11:48:51;;;;;;;22.50;13.00;;;3.10;99.90;;;;;;5073033;28;20562;-69
2022/01/29 11:51:39;;;;;;;17.10;12.35;;;3.10;99.90;;;;;;5073509;28;20204;-69
2022/01/29 11:54:07;;;;;;;17.30;11.13;;;3.10;99.90;;;;;;5072556;28;20296;-68
2022/01/29 11:56:36;;;;;;;18.67;12.43;;;3.20;99.90;;;;;;5075733;28;20199;-68
2022/01/29 11:59:21;;;;;;;18.40;12.38;;;3.20;99.90;;;;;;5077287;28;20216;-68
2022/01/29 12:01:49;;;;;;;18.85;13.45;;;3.30;99.90;;;;;;5075429;28;20222;-68
2022/01/29 12:04:17;;;;;;;19.17;12.45;;;3.40;99.90;;;;;;5077001;28;20196;-68
2022/01/29 12:07:18;;;;;;;19.52;12.75;;;3.40;99.90;;;;;;5077096;28;20212;-69
2022/01/29 12:09:51;;;;;;;17.65;11.88;;;3.30;99.90;;;;;;5076833;28;20203;-69
2022/01/29 12:12:23;;;;;;;16.45;11.88;;;3.30;99.90;;;;;;5076516;28;20207;-68
2022/01/29 12:14:52;;;;;;;17.20;12.48;;;3.40;99.90;;;;;;5075153;28;20234;-69
2022/01/29 12:17:35;;;;;;;16.40;11.85;;;3.30;99.90;;;;;;5076427;28;20209;-68
2022/01/29 12:20:04;;;;;;;15.38;10.98;;;3.40;99.90;;;;;;5076368;28;20220;-69
2022/01/29 12:22:35;;;;;;;13.65;10.32;;;3.50;99.90;;;;;;5076359;28;20204;-67
2022/01/29 12:25:05;;;;;;;13.60;10.55;;;3.40;99.90;;;;;;5076283;28;20272;-68
2022/01/29 12:27:55;;;;;;;13.55;10.27;;;3.50;99.90;;;;;;5076097;28;20196;-68
2022/01/29 12:30:30;;;;;;;14.55;10.18;;;3.50;99.90;;;;;;5076676;28;20245;-69
2022/01/29 12:33:12;;;;;;;14.23;10.13;;;3.50;99.90;;;;;;5076549;28;20193;-69
2022/01/29 12:36:03;;;;;;;14.60;11.40;;;3.50;99.90;;;;;;5076466;28;20200;-69
2022/01/29 12:38:38;;;;;;;15.15;10.18;;;3.50;99.90;;;;;;5075005;28;20272;-67
2022/01/29 12:41:07;;;;;;;13.65;10.02;;;3.60;99.90;;;;;;5076587;28;20210;-68
2022/01/29 12:43:39;;;;;;;13.68;10.88;;;3.60;99.90;;;;;;5076720;28;20199;-68
2022/01/29 12:46:19;;;;;;;14.60;9.65;;;3.50;99.90;;;;;;5075993;28;20261;-68
2022/01/29 12:49:10;;;;;;;15.43;10.15;;;3.60;99.90;;;;;;5076148;28;20184;-68
2022/01/29 12:51:50;;;;;;;15.90;11.52;;;3.70;99.90;;;;;;5076446;28;20200;-68
2022/01/29 12:54:16;;;;;;;13.18;10.02;;;3.70;99.90;;;;;;5076362;28;20580;-68
2022/01/29 12:56:43;;;;;;;15.05;9.85;;;3.70;99.90;;;;;;5075733;28;20204;-67
2022/01/29 12:59:14;;;;;;;13.27;9.45;;;3.70;99.90;;;;;;5076108;28;20227;-67